Portada
METAR-TAF:

METAR-TAF

Aeroports :

Aeroport de Kuito

Kuito, Angola

latitud: 12-24-15S, longitud: 16-56-55E, altitud: 1712 m

Observació

L'informe es va fer fa 7 hores i 39 minuts, a les 15:00 UTC
Vent 5 kt del Oest
Temperatura 24°C
Humitat 29%
Pressió 1022 hPa
Visibilitat 10 km o més
sense núvols per sota de 1500 mi sense presència de cumulonimbus.

METAR: FNKU 291500Z 28005KT CAVOK 24/05 Q1022

Hora: 23:39 (22:39 UTC)

Pronòstic

L'informe es va fer fa 11 hores i 39 minuts, a les 11:00 UTC
Pronòstic vàlid del 29 a les 12 UTC al 29 a les 24 UTC
Vent 5 kt del Est/Sud-Est
Visibilitat 10 km o més
Cel ennuvolat a una alçada de 4000 ft
Temporalment
l' 29 a les 19 UTC al 29 a les 23 UTC
Vent 4 kt del Oest/Sud-Oest

TAF: FNKU 291100Z 2912/2924 11005KT 9999 BKN040 TEMPO 2919/2923 25004KT

Observacions i pronòstics meteorològics de més de 4000 aeroports (METAR i TAF).

Les estacions disponibles són els punts grocs i vermells al mapa.

Posi el ratolí al punt desitjat per veure el nom de l'estació.

Feu clic per veure les observacions i els pronòstics meteorològics.

Per canviar el mapa: feu clic els botons verds amb una creu de color negre per apropar; al botó verd amb un guió per allunyar la imatge; o en les fletxes verdes per a mapes adjacents.


METAR-TAF: